Data for 06/01/2013

Time Sea-Level Adjusted Pressure Absolute Pressure Temperature Relative Humidity Dew Point   
(mb) (inHg) (mb) (inHg) (C) (F) (%) (C) (F)
00:05 1026 30.3 856 25.28 6.5 43.7 79 3.1 37.5
00:10 1026 30.3 856 25.28 6.2 43.2 80 3.1 37.6
00:15 1027 30.33 856 25.28 6.1 43 81 3.1 37.6
00:20 1026 30.3 856 25.28 6.3 43.3 80 3 37.5
00:25 1026 30.3 856 25.28 6.3 43.4 80 3.1 37.6
00:30 1026 30.3 856 25.28 6.4 43.5 80 3.2 37.8
00:35 1026 30.3 856 25.28 6.5 43.7 79 3.2 37.8
00:40 1026 30.3 856 25.28 6.5 43.7 79 3.2 37.8
00:45 1026 30.3 856 25.28 6.6 43.8 79 3.1 37.6
00:50 1026 30.3 856 25.28 6.6 43.8 78 3 37.4
00:55 1026 30.3 856 25.28 6.5 43.7 77 2.7 36.9
01:00 1026 30.3 856 25.28 6.5 43.8 77 2.9 37.2
01:05 1026 30.3 856 25.28 6.4 43.4 78 2.9 37.2
01:10 1026 30.3 856 25.28 6.1 42.9 80 2.9 37.2
01:15 1026 30.3 856 25.28 5.8 42.5 81 2.8 37
01:20 1026 30.3 856 25.28 5.6 42.1 82 2.7 36.9
01:25 1026 30.3 856 25.28 5.4 41.7 83 2.7 36.9
01:30 1026 30.3 856 25.28 5 40.9 86 2.8 37
01:35 1026 30.3 856 25.28 4.5 40.1 87 2.5 36.5
01:40 1026 30.3 856 25.28 4.6 40.3 86 2.4 36.3
01:45 1026 30.3 856 25.28 4.9 40.9 84 2.5 36.5
01:50 1026 30.3 856 25.28 5.1 41.1 84 2.7 36.8
01:55 1026 30.3 856 25.28 5 41.1 85 2.7 36.9
02:00 1026 30.3 856 25.28 4.9 40.8 85 2.6 36.7
02:05 1027 30.33 856 25.28 4.8 40.6 85 2.6 36.6
02:10 1027 30.33 856 25.28 4.7 40.5 85 2.5 36.4
02:15 1027 30.33 856 25.28 4.8 40.6 85 2.5 36.5
02:20 1027 30.33 856 25.28 4.9 40.8 84 2.4 36.4
02:25 1027 30.33 856 25.28 4.8 40.7 85 2.5 36.4
02:30 1027 30.33 856 25.28 4.8 40.7 84 2.4 36.4
02:35 1026 30.3 856 25.28 4.6 40.3 85 2.3 36.2
02:40 1026 30.3 856 25.28 4.5 40.1 85 2.2 36
02:45 1026 30.3 856 25.28 4.6 40.2 84 2.1 35.9
02:50 1026 30.3 856 25.28 4.5 40.2 84 2.1 35.8
02:55 1026 30.3 856 25.28 4.6 40.2 85 2.2 36
03:00 1026 30.3 856 25.28 4.6 40.3 85 2.2 36
03:05 1026 30.3 856 25.28 4.6 40.3 85 2.2 36
03:10 1026 30.3 856 25.28 4.5 40.2 85 2.2 35.9
03:15 1026 30.3 856 25.28 4.4 39.9 86 2.2 36
03:20 1026 30.3 856 25.28 4.2 39.5 87 2.1 35.8
03:25 1026 30.3 856 25.28 4 39.2 87 2 35.6
03:30 1026 30.3 856 25.28 4 39.2 87 2 35.7
03:35 1026 30.3 856 25.28 4 39.2 87 2.1 35.7
03:40 1026 30.3 856 25.28 3.9 39 87 2 35.6
03:45 1026 30.3 856 25.28 3.8 38.8 87 1.9 35.4
03:50 1026 30.3 855 25.25 3.7 38.6 87 1.8 35.2
03:55 1026 30.3 855 25.25 3.7 38.6 87 1.8 35.2
04:00 1026 30.3 855 25.25 3.6 38.6 87 1.7 35
04:05 1026 30.3 855 25.25 3.7 38.6 86 1.6 34.9
04:10 1026 30.3 855 25.25 3.7 38.7 86 1.6 34.9
04:15 1026 30.3 855 25.25 3.6 38.5 87 1.6 34.8
04:20 1026 30.3 855 25.25 3.6 38.5 87 1.6 34.8
04:25 1026 30.3 855 25.25 3.6 38.6 86 1.6 34.8
04:30 1026 30.3 855 25.25 3.8 38.9 85 1.6 34.8
04:35 1026 30.3 855 25.25 3.6 38.5 87 1.7 35
04:40 1026 30.3 855 25.25 3.4 38.2 88 1.6 34.9
04:45 1026 30.3 855 25.25 3.3 37.9 88 1.5 34.6
04:50 1026 30.3 855 25.25 3 37.5 88 1.2 34.2
04:55 1026 30.3 855 25.25 2.8 37 89 1.1 34
05:00 1026 30.3 855 25.25 2.7 36.9 88 1 33.8
05:05 1026 30.3 855 25.25 3 37.3 87 1 33.9
05:10 1026 30.3 855 25.25 3.2 37.7 86 1.1 33.9
05:15 1026 30.3 855 25.25 3.2 37.8 85 1 33.8
05:20 1026 30.3 855 25.25 3.2 37.8 85 0.9 33.7
05:25 1026 30.3 855 25.25 3.2 37.8 85 0.9 33.7
05:30 1026 30.3 855 25.25 3.3 37.9 84 0.9 33.6
05:35 1026 30.3 855 25.25 3.3 37.9 84 0.9 33.7
05:40 1026 30.3 855 25.25 3.5 38.4 84 1 33.9
05:45 1026 30.3 855 25.25 3.8 38.9 82 1.1 34
05:50 1026 30.3 855 25.25 3.9 39 82 1.2 34.1
05:55 1026 30.3 855 25.25 4.2 39.5 81 1.2 34.2
06:00 1026 30.3 855 25.25 4.4 40 81 1.4 34.5
06:05 1026 30.3 855 25.25 4.7 40.5 79 1.5 34.6
06:10 1026 30.3 855 25.25 5 41 78 1.5 34.7
06:15 1026 30.3 855 25.25 5.2 41.4 77 1.5 34.7
06:20 1026 30.3 855 25.25 5.3 41.6 77 1.6 35
06:25 1026 30.3 855 25.25 5.8 42.4 76 1.8 35.3
06:30 1026 30.3 855 25.25 6.1 42.9 76 2.1 35.8
06:35 1026 30.3 855 25.25 6.3 43.3 74 2.1 35.8
06:40 1026 30.3 855 25.25 6.5 43.6 73 2.1 35.7
06:45 1026 30.3 855 25.25 6.7 44.1 73 2.2 36
06:50 1026 30.3 855 25.25 7.6 45.6 70 2.4 36.4
06:55 1026 30.3 855 25.25 8.3 46.9 68 2.8 37
07:00 1026 30.3 855 25.25 8.6 47.4 67 2.7 36.9
07:05 1026 30.3 855 25.25 9 48.3 63 2.5 36.5
07:10 1026 30.3 855 25.25 9.3 48.7 62 2.3 36.1
07:15 1026 30.3 855 25.25 9.8 49.6 62 2.8 37
07:20 1026 30.3 855 25.25 10.4 50.7 60 2.9 37.2
07:25 1026 30.3 855 25.25 9.9 49.9 63 3.2 37.7
07:30 1026 30.3 855 25.25 9.8 49.7 62 2.8 37.1
07:35 1026 30.3 855 25.25 10.5 50.8 60 3 37.5
07:40 1026 30.3 855 25.25 10.5 51 59 3 37.3
07:45 1026 30.3 855 25.25 10.8 51.4 59 3.1 37.7
07:50 1026 30.3 855 25.25 10.3 50.6 63 3.5 38.3
07:55 1026 30.3 855 25.25 9.5 49.2 62 2.8 37
08:00 1026 30.3 855 25.25 10.4 50.7 60 2.9 37.3
08:05 1026 30.3 855 25.25 10 50 63 3.3 38
08:10 1026 30.3 855 25.25 10.5 51 62 3.5 38.4
08:15 1026 30.3 855 25.25 10.9 51.7 58 3 37.4
08:20 1026 30.3 855 25.25 11.8 53.2 55 3 37.4
08:25 1026 30.3 855 25.25 12 53.5 54 3.1 37.5
08:30 1026 30.3 855 25.25 11.9 53.3 54 2.8 37
08:35 1026 30.3 855 25.25 11.9 53.4 54 2.9 37.2
08:40 1026 30.3 855 25.25 12 53.7 56 3.5 38.3
08:45 1026 30.3 855 25.25 11.2 52.2 61 4 39.2
08:50 1026 30.3 855 25.25 10.8 51.4 59 3.1 37.5
08:55 1026 30.3 855 25.25 10.9 51.5 57 2.6 36.8
09:00 1026 30.3 855 25.25 11.2 52.2 56 2.9 37.3
09:05 1025 30.27 855 25.25 11.3 52.4 60 3.8 38.9
09:10 1025 30.27 855 25.25 11.6 52.9 55 2.9 37.2
09:15 1025 30.27 855 25.25 11.7 53 55 3.1 37.6
09:20 1025 30.27 855 25.25 11.7 53.1 55 3.2 37.7
09:25 1025 30.27 854 25.22 11.4 52.5 55 2.7 36.9
09:30 1025 30.27 854 25.22 11.7 53 56 3.3 38
09:35 1025 30.27 854 25.22 12.7 54.8 52 3.2 37.7
09:40 1025 30.27 854 25.22 13.5 56.2 47 2.5 36.4
09:45 1025 30.27 854 25.22 13.7 56.7 47 2.9 37.1
09:50 1025 30.27 854 25.22 13.7 56.7 47 2.6 36.6
09:55 1025 30.27 854 25.22 14.2 57.6 44 2.2 36
10:00 1025 30.27 854 25.22 14.2 57.5 45 2.4 36.3
10:05 1025 30.27 854 25.22 14.3 57.8 44 2.4 36.4
10:10 1025 30.27 854 25.22 14.4 58 42 1.7 35.1
10:15 1025 30.27 854 25.22 14.4 57.9 39 0.8 33.5
10:20 1025 30.27 854 25.22 13.7 56.7 41 0.7 33.3
10:25 1025 30.27 854 25.22 14.5 58 40 1.1 34.1
10:30 1025 30.27 854 25.22 14.7 58.4 41 1.7 35.1
10:35 1025 30.27 854 25.22 13.7 56.7 43 1.4 34.5
10:40 1025 30.27 854 25.22 14.3 57.8 44 2.4 36.3
10:45 1024 30.24 854 25.22 13.9 57 42 1.4 34.6
10:50 1024 30.24 854 25.22 14.1 57.4 43 1.8 35.2
10:55 1024 30.24 853 25.19 14.9 58.8 40 1.6 35
11:00 1024 30.24 853 25.19 15 59 41 2 35.6
11:05 1024 30.24 853 25.19 15.8 60.5 38 1.6 34.9
11:10 1024 30.24 853 25.19 16.2 61.2 37 1.6 34.9
11:15 1024 30.24 853 25.19 15.8 60.5 38 1.6 34.9
11:20 1024 30.24 853 25.19 15.7 60.2 39 1.8 35.2
11:25 1024 30.24 853 25.19 14.4 58 40 1.1 34
11:30 1024 30.24 853 25.19 15.4 59.8 37 0.9 33.6
11:35 1024 30.24 853 25.19 16.2 61.2 36 1.3 34.4
11:40 1024 30.24 853 25.19 15.9 60.6 37 1.4 34.5
11:45 1024 30.24 853 25.19 16 60.9 35 0.7 33.2
11:50 1023 30.21 853 25.19 16.6 62 34 0.8 33.4
11:55 1023 30.21 853 25.19 16.7 62.1 38 2.4 36.4
12:00 1023 30.21 853 25.19 15.4 59.7 39 1.7 35.1
12:05 1023 30.21 852 25.16 16.3 61.3 36 1.2 34.1
12:10 1023 30.21 852 25.16 16.8 62.3 36 1.7 35.1
12:15 1023 30.21 852 25.16 17.6 63.6 34 1.8 35.2
12:20 1023 30.21 852 25.16 17.2 63 37 2.5 36.5
12:25 1023 30.21 852 25.16 16.7 62 35 1.2 34.1
12:30 1023 30.21 852 25.16 17.2 63 33 0.9 33.6
12:35 1023 30.21 852 25.16 17 62.6 34 1.2 34.1
12:40 1023 30.21 852 25.16 17.6 63.7 34 1.6 34.9
12:45 1023 30.21 852 25.16 16.6 61.9 39 2.6 36.8
12:50 1023 30.21 852 25.16 15.7 60.3 38 1.4 34.5
12:55 1023 30.21 852 25.16 16.1 61 37 1.5 34.7
13:00 1023 30.21 852 25.16 15.8 60.5 36 1 33.8
13:05 1022 30.18 852 25.16 17.1 62.8 33 0.9 33.7
13:10 1022 30.18 852 25.16 18.3 64.9 32 1.6 34.8
13:15 1022 30.18 851 25.13 18.5 65.3 31 1.2 34.2
13:20 1022 30.18 851 25.13 18.7 65.6 33 2.1 35.8
13:25 1022 30.18 851 25.13 18.1 64.6 34 2.1 35.8
13:30 1022 30.18 851 25.13 18 64.3 33 1.5 34.6
13:35 1022 30.18 851 25.13 18.8 65.8 31 1.5 34.7
13:40 1022 30.18 851 25.13 18 64.4 34 1.9 35.5
13:45 1022 30.18 851 25.13 18.6 65.5 34 2.4 36.4
13:50 1022 30.18 851 25.13 18.1 64.6 36 2.9 37.3
13:55 1022 30.18 851 25.13 18.2 64.7 34 2.1 35.9
14:00 1022 30.18 851 25.13 18.5 65.3 35 2.8 37
14:05 1022 30.18 851 25.13 18.7 65.6 33 2.3 36.1
14:10 1022 30.18 851 25.13 19.2 66.5 33 2.6 36.7
14:15 1022 30.18 851 25.13 19.1 66.4 32 2.2 36
14:20 1022 30.18 851 25.13 19 66.2 32 2.2 36
14:25 1022 30.18 851 25.13 18.9 65.9 31 1.6 34.9
14:30 1022 30.18 851 25.13 19 66.3 31 1.7 35
14:35 1022 30.18 851 25.13 19.2 66.6 31 2.1 35.7
14:40 1022 30.18 851 25.13 19.5 67 30 1.4 34.6
14:45 1021 30.15 851 25.13 19.2 66.5 32 2 35.7
14:50 1021 30.15 851 25.13 17.9 64.2 33 1.4 34.4
14:55 1021 30.15 851 25.13 18.9 65.9 31 1.3 34.4
15:00 1021 30.15 851 25.13 18.1 64.5 35 2.6 36.7
15:05 1021 30.15 851 25.13 18 64.3 31 0.9 33.7
15:10 1021 30.15 850 25.1 18.5 65.3 32 1.8 35.2
15:15 1021 30.15 850 25.1 18.2 64.7 31 1 33.8
15:20 1021 30.15 850 25.1 18.4 65.1 31 1.1 34.1
15:25 1021 30.15 850 25.1 19 66.3 29 0.9 33.6
15:30 1021 30.15 850 25.1 19.5 67 30 1.5 34.7
15:35 1021 30.15 850 25.1 19 66.2 31 1.8 35.2
15:40 1021 30.15 850 25.1 18 64.3 32 1.1 33.9
15:45 1021 30.15 850 25.1 18.4 65.2 30 0.6 33.1
15:50 1021 30.15 850 25.1 18.7 65.6 30 0.9 33.6
15:55 1021 30.15 850 25.1 18.7 65.6 29 0.6 33.1
16:00 1021 30.15 850 25.1 18.3 64.9 30 0.7 33.2
16:05 1021 30.15 850 25.1 18 64.3 30 0.3 32.5
16:10 1021 30.15 850 25.1 19 66.1 28 0.2 32.3
16:15 1021 30.15 850 25.1 19.7 67.4 27 0.2 32.3
16:20 1021 30.15 850 25.1 19.9 67.9 27 0.7 33.2
16:25 1021 30.15 850 25.1 19.1 66.4 28 0.3 32.6
16:30 1021 30.15 850 25.1 18.3 65 28 -0.3 31.4
16:35 1021 30.15 850 25.1 18.6 65.4 28 -0.2 31.7
16:40 1021 30.15 850 25.1 18.7 65.6 28 -0.3 31.5
16:45 1020 30.12 850 25.1 18.8 65.8 28 0.1 32.2
16:50 1020 30.12 850 25.1 17.9 64.2 29 -0.2 31.6
16:55 1020 30.12 850 25.1 17.9 64.3 29 -0.4 31.2
17:00 1020 30.12 849 25.07 17.6 63.7 29 -0.4 31.2
17:05 1020 30.12 849 25.07 17.5 63.6 29 -0.6 30.9
17:10 1020 30.12 849 25.07 18 64.4 29 -0.3 31.5
17:15 1020 30.12 849 25.07 18 64.3 28 -0.5 31
17:20 1020 30.12 849 25.07 17.6 63.7 28 -0.9 30.3
17:25 1020 30.12 849 25.07 17.5 63.4 28 -1.1 30
17:30 1020 30.12 849 25.07 17.5 63.5 28 -1.3 29.7
17:35 1020 30.12 849 25.07 17.7 63.9 27 -1.2 29.8
17:40 1020 30.12 849 25.07 17.8 64 27 -1.2 29.8
17:45 1020 30.12 849 25.07 17.7 63.9 27 -1.2 29.8
17:50 1020 30.12 849 25.07 17.3 63.2 28 -1.4 29.6
17:55 1020 30.12 849 25.07 17.3 63.2 27 -1.5 29.3
18:00 1020 30.12 849 25.07 17.4 63.3 27 -1.5 29.4
18:05 1020 30.12 849 25.07 17.5 63.4 27 -1.6 29.2
18:10 1020 30.12 849 25.07 17.4 63.3 28 -1.4 29.6
18:15 1020 30.12 849 25.07 17.3 63.2 28 -1.2 29.9
18:20 1020 30.12 849 25.07 17.4 63.4 28 -0.9 30.4
18:25 1020 30.12 849 25.07 17.5 63.5 28 -1 30.2
18:30 1020 30.12 849 25.07 17.5 63.5 28 -0.9 30.4
18:35 1020 30.12 849 25.07 17.4 63.3 29 -0.8 30.5
18:40 1020 30.12 849 25.07 17.3 63.2 29 -0.8 30.6
18:45 1020 30.12 849 25.07 17.2 62.9 29 -0.8 30.6
18:50 1020 30.12 849 25.07 17.1 62.7 30 -0.4 31.3
18:55 1020 30.12 849 25.07 17.1 62.8 30 -0.5 31.2
19:00 1020 30.12 849 25.07 17.1 62.7 32 0.6 33
19:05 1020 30.12 849 25.07 16.7 62.1 37 2.1 35.8
19:10 1020 30.12 849 25.07 16.4 61.5 42 3.6 38.5
19:15 1019 30.09 849 25.07 16.1 60.9 44 3.8 38.8
19:20 1019 30.09 849 25.07 15.8 60.5 45 3.9 39
19:25 1019 30.09 849 25.07 15.6 60.1 46 4 39.3
19:30 1019 30.09 849 25.07 15.4 59.8 47 4.3 39.7
19:35 1019 30.09 849 25.07 15.3 59.5 48 4.4 40
19:40 1019 30.09 848 25.04 15.1 59.2 48 4.4 39.9
19:45 1019 30.09 848 25.04 15.1 59.1 48 4.4 39.9
19:50 1019 30.09 848 25.04 15 59 49 4.4 39.9
19:55 1019 30.09 848 25.04 14.9 58.8 49 4.5 40
20:00 1019 30.09 848 25.04 14.8 58.7 50 4.6 40.4
20:05 1019 30.09 848 25.04 14.7 58.4 51 4.7 40.5
20:10 1019 30.09 848 25.04 14.5 58.2 51 4.7 40.5
20:15 1019 30.09 848 25.04 14.4 57.9 52 4.8 40.6
20:20 1019 30.09 848 25.04 14.3 57.7 53 4.9 40.8
20:25 1019 30.09 848 25.04 14.2 57.6 53 4.9 40.8
20:30 1019 30.09 848 25.04 14.2 57.5 52 4.6 40.3
20:35 1019 30.09 848 25.04 14.3 57.7 52 4.6 40.3
20:40 1019 30.09 848 25.04 14.3 57.7 52 4.6 40.2
20:45 1019 30.09 848 25.04 14.3 57.7 51 4.4 39.9
20:50 1019 30.09 849 25.07 14.3 57.7 51 4.5 40
20:55 1019 30.09 849 25.07 14.3 57.8 50 4.2 39.6
21:00 1019 30.09 849 25.07 14.3 57.8 51 4.4 39.9
21:05 1019 30.09 849 25.07 14.3 57.7 52 4.6 40.3
21:10 1019 30.09 849 25.07 14.2 57.5 52 4.6 40.3
21:15 1019 30.09 849 25.07 14.1 57.3 53 4.8 40.7
21:20 1019 30.09 849 25.07 14 57.2 54 4.9 40.8
21:25 1019 30.09 849 25.07 13.9 57.1 55 5 41
21:30 1019 30.09 849 25.07 13.9 57.1 55 5 41.1
21:35 1019 30.09 849 25.07 13.8 56.9 55 5.1 41.1
21:40 1019 30.09 849 25.07 13.8 56.8 56 5.2 41.3
21:45 1019 30.09 849 25.07 13.7 56.7 56 5.2 41.3
21:50 1019 30.09 848 25.04 13.7 56.6 56 5.2 41.4
21:55 1019 30.09 848 25.04 13.7 56.7 56 5.2 41.3
22:00 1019 30.09 848 25.04 13.7 56.7 56 5.2 41.3
22:05 1019 30.09 848 25.04 13.7 56.6 56 5.2 41.3
22:10 1019 30.09 848 25.04 13.6 56.5 57 5.2 41.3
22:15 1019 30.09 848 25.04 13.5 56.3 57 5.2 41.3
22:20 1019 30.09 848 25.04 13.5 56.2 57 5.3 41.5
22:25 1019 30.09 848 25.04 13.3 56 57 5.2 41.3
22:30 1019 30.09 848 25.04 13.3 55.9 58 5.2 41.3
22:35 1019 30.09 848 25.04 13.1 55.7 58 5.2 41.4
22:40 1019 30.09 848 25.04 13.1 55.6 58 5 41
22:45 1019 30.09 848 25.04 13.1 55.6 58 5.1 41.2
22:50 1019 30.09 848 25.04 13.1 55.5 58 5 40.9
22:55 1019 30.09 848 25.04 13.1 55.6 57 4.9 40.8
23:00 1019 30.09 848 25.04 13.1 55.5 57 4.8 40.6
23:05 1019 30.09 848 25.04 13.1 55.5 57 4.9 40.8
23:10 1019 30.09 848 25.04 12.9 55.3 57 4.7 40.4
23:15 1019 30.09 848 25.04 12.9 55.2 57 4.6 40.3
23:20 1019 30.09 848 25.04 12.8 55.1 57 4.6 40.3
23:25 1019 30.09 848 25.04 12.7 54.9 58 4.7 40.4
23:30 1019 30.09 848 25.04 12.6 54.7 58 4.6 40.4
23:35 1019 30.09 848 25.04 12.5 54.6 58 4.6 40.4
23:40 1019 30.09 848 25.04 12.4 54.4 59 4.6 40.3
23:45 1019 30.09 848 25.04 12.4 54.3 59 4.6 40.4
23:50 1019 30.09 848 25.04 12.3 54.1 59 4.6 40.2
23:55 1019 30.09 848 25.04 12.3 54.2 59 4.6 40.4
24:00 1019 30.09 848 25.04 12.2 54 59 4.5 40.2